sensor_id;sensor_type;location;lat;lon;timestamp;temperature;humidity
19348;DHT22;9810;52.480;9.806;2023-06-10T00:02:10;15.90;99.90
19348;DHT22;9810;52.480;9.806;2023-06-10T00:04:38;15.80;99.90
19348;DHT22;9810;52.480;9.806;2023-06-10T00:07:05;15.70;99.90
19348;DHT22;9810;52.480;9.806;2023-06-10T00:09:36;15.40;99.90
19348;DHT22;9810;52.480;9.806;2023-06-10T00:12:04;15.30;99.90
19348;DHT22;9810;52.480;9.806;2023-06-10T00:14:32;15.40;99.90
19348;DHT22;9810;52.480;9.806;2023-06-10T00:16:59;15.30;99.90
19348;DHT22;9810;52.480;9.806;2023-06-10T00:19:26;15.50;99.90
19348;DHT22;9810;52.480;9.806;2023-06-10T00:21:55;15.80;99.90
19348;DHT22;9810;52.480;9.806;2023-06-10T00:24:23;15.80;99.90
19348;DHT22;9810;52.480;9.806;2023-06-10T00:26:52;15.50;99.90
19348;DHT22;9810;52.480;9.806;2023-06-10T00:29:19;15.20;99.90
19348;DHT22;9810;52.480;9.806;2023-06-10T00:31:46;14.90;99.90
19348;DHT22;9810;52.480;9.806;2023-06-10T00:34:13;14.70;99.90
19348;DHT22;9810;52.480;9.806;2023-06-10T00:36:41;14.70;99.90
19348;DHT22;9810;52.480;9.806;2023-06-10T00:39:08;15.00;99.90
19348;DHT22;9810;52.480;9.806;2023-06-10T00:41:36;15.70;99.90
19348;DHT22;9810;52.480;9.806;2023-06-10T00:44:05;15.90;99.90
19348;DHT22;9810;52.480;9.806;2023-06-10T00:46:32;15.90;99.90
19348;DHT22;9810;52.480;9.806;2023-06-10T00:49:01;15.90;99.90
19348;DHT22;9810;52.480;9.806;2023-06-10T00:51:28;15.90;99.90
19348;DHT22;9810;52.480;9.806;2023-06-10T00:53:56;16.00;99.90
19348;DHT22;9810;52.480;9.806;2023-06-10T00:56:24;15.90;99.90
19348;DHT22;9810;52.480;9.806;2023-06-10T00:58:52;15.90;99.90
19348;DHT22;9810;52.480;9.806;2023-06-10T01:01:21;15.70;99.90
19348;DHT22;9810;52.480;9.806;2023-06-10T01:03:49;15.60;99.90
19348;DHT22;9810;52.480;9.806;2023-06-10T01:06:23;15.50;99.90
19348;DHT22;9810;52.480;9.806;2023-06-10T01:08:56;15.50;99.90
19348;DHT22;9810;52.480;9.806;2023-06-10T01:11:33;15.50;99.90
19348;DHT22;9810;52.480;9.806;2023-06-10T01:14:02;15.60;99.90
19348;DHT22;9810;52.480;9.806;2023-06-10T01:16:32;15.60;99.90
19348;DHT22;9810;52.480;9.806;2023-06-10T01:19:01;15.40;99.90
19348;DHT22;9810;52.480;9.806;2023-06-10T01:21:30;15.40;99.90
19348;DHT22;9810;52.480;9.806;2023-06-10T01:23:57;15.30;99.90
19348;DHT22;9810;52.480;9.806;2023-06-10T01:26:28;15.20;99.90
19348;DHT22;9810;52.480;9.806;2023-06-10T01:28:58;15.40;99.90
19348;DHT22;9810;52.480;9.806;2023-06-10T01:31:32;15.30;99.90
19348;DHT22;9810;52.480;9.806;2023-06-10T01:34:03;15.30;99.90
19348;DHT22;9810;52.480;9.806;2023-06-10T01:36:35;15.30;99.90
19348;DHT22;9810;52.480;9.806;2023-06-10T01:39:04;15.20;99.90
19348;DHT22;9810;52.480;9.806;2023-06-10T01:41:32;15.20;99.90
19348;DHT22;9810;52.480;9.806;2023-06-10T01:44:01;15.20;99.90
19348;DHT22;9810;52.480;9.806;2023-06-10T01:46:29;15.10;99.90
19348;DHT22;9810;52.480;9.806;2023-06-10T01:48:57;15.00;99.90
19348;DHT22;9810;52.480;9.806;2023-06-10T01:51:24;15.00;99.90
19348;DHT22;9810;52.480;9.806;2023-06-10T01:53:53;14.90;99.90
19348;DHT22;9810;52.480;9.806;2023-06-10T01:56:20;14.70;99.90
19348;DHT22;9810;52.480;9.806;2023-06-10T01:58:47;14.70;99.90
19348;DHT22;9810;52.480;9.806;2023-06-10T02:01:15;14.50;99.90
19348;DHT22;9810;52.480;9.806;2023-06-10T02:03:42;14.40;99.90
19348;DHT22;9810;52.480;9.806;2023-06-10T02:06:09;14.50;99.90
19348;DHT22;9810;52.480;9.806;2023-06-10T02:08:37;14.50;99.90
19348;DHT22;9810;52.480;9.806;2023-06-10T02:11:06;14.50;99.90
19348;DHT22;9810;52.480;9.806;2023-06-10T02:13:34;14.40;99.90
19348;DHT22;9810;52.480;9.806;2023-06-10T02:16:02;14.20;99.90
19348;DHT22;9810;52.480;9.806;2023-06-10T02:18:29;14.00;99.90
19348;DHT22;9810;52.480;9.806;2023-06-10T02:20:57;13.90;99.90
19348;DHT22;9810;52.480;9.806;2023-06-10T02:23:24;13.80;99.90
19348;DHT22;9810;52.480;9.806;2023-06-10T02:25:51;13.50;99.90
19348;DHT22;9810;52.480;9.806;2023-06-10T02:28:20;13.50;99.90
19348;DHT22;9810;52.480;9.806;2023-06-10T02:30:48;13.40;99.90
19348;DHT22;9810;52.480;9.806;2023-06-10T02:33:15;13.20;99.90
19348;DHT22;9810;52.480;9.806;2023-06-10T02:35:43;13.10;99.90
19348;DHT22;9810;52.480;9.806;2023-06-10T02:38:10;13.00;99.90
19348;DHT22;9810;52.480;9.806;2023-06-10T02:40:38;13.10;99.90
19348;DHT22;9810;52.480;9.806;2023-06-10T02:43:05;13.20;99.90
19348;DHT22;9810;52.480;9.806;2023-06-10T02:45:34;13.40;99.90
19348;DHT22;9810;52.480;9.806;2023-06-10T02:48:01;13.50;99.90
19348;DHT22;9810;52.480;9.806;2023-06-10T02:50:29;13.60;99.90
19348;DHT22;9810;52.480;9.806;2023-06-10T02:52:56;13.70;99.90
19348;DHT22;9810;52.480;9.806;2023-06-10T02:55:23;13.70;99.90
19348;DHT22;9810;52.480;9.806;2023-06-10T02:57:51;13.90;99.90
19348;DHT22;9810;52.480;9.806;2023-06-10T03:00:19;13.80;99.90
19348;DHT22;9810;52.480;9.806;2023-06-10T03:02:49;13.80;99.90
19348;DHT22;9810;52.480;9.806;2023-06-10T03:05:17;13.80;99.90
19348;DHT22;9810;52.480;9.806;2023-06-10T03:07:44;13.70;99.90
19348;DHT22;9810;52.480;9.806;2023-06-10T03:10:12;13.70;99.90
19348;DHT22;9810;52.480;9.806;2023-06-10T03:12:39;13.70;99.90
19348;DHT22;9810;52.480;9.806;2023-06-10T03:15:07;13.60;99.90
19348;DHT22;9810;52.480;9.806;2023-06-10T03:17:35;13.50;99.90
19348;DHT22;9810;52.480;9.806;2023-06-10T03:20:05;13.50;99.90
19348;DHT22;9810;52.480;9.806;2023-06-10T03:22:34;13.70;99.90
19348;DHT22;9810;52.480;9.806;2023-06-10T03:25:04;13.60;99.90
19348;DHT22;9810;52.480;9.806;2023-06-10T03:27:31;13.60;99.90
19348;DHT22;9810;52.480;9.806;2023-06-10T03:30:01;13.70;99.90
19348;DHT22;9810;52.480;9.806;2023-06-10T03:32:29;13.60;99.90
19348;DHT22;9810;52.480;9.806;2023-06-10T03:34:56;13.60;99.90
19348;DHT22;9810;52.480;9.806;2023-06-10T03:37:25;13.80;99.90
19348;DHT22;9810;52.480;9.806;2023-06-10T03:39:53;13.50;99.90
19348;DHT22;9810;52.480;9.806;2023-06-10T03:42:20;13.40;99.90
19348;DHT22;9810;52.480;9.806;2023-06-10T03:44:47;13.30;99.90
19348;DHT22;9810;52.480;9.806;2023-06-10T03:47:15;13.20;99.90
19348;DHT22;9810;52.480;9.806;2023-06-10T03:49:45;13.30;99.90
19348;DHT22;9810;52.480;9.806;2023-06-10T03:52:12;13.20;99.90
19348;DHT22;9810;52.480;9.806;2023-06-10T03:54:41;13.40;99.90
19348;DHT22;9810;52.480;9.806;2023-06-10T03:57:10;13.50;99.90
19348;DHT22;9810;52.480;9.806;2023-06-10T03:59:38;13.70;99.90
19348;DHT22;9810;52.480;9.806;2023-06-10T04:02:05;14.50;99.90
19348;DHT22;9810;52.480;9.806;2023-06-10T04:04:34;15.00;99.90
19348;DHT22;9810;52.480;9.806;2023-06-10T04:07:03;15.20;99.90
19348;DHT22;9810;52.480;9.806;2023-06-10T04:09:31;14.70;99.90
19348;DHT22;9810;52.480;9.806;2023-06-10T04:11:59;14.10;99.90
19348;DHT22;9810;52.480;9.806;2023-06-10T04:14:27;13.80;99.90
19348;DHT22;9810;52.480;9.806;2023-06-10T04:16:54;14.00;99.90
19348;DHT22;9810;52.480;9.806;2023-06-10T04:19:22;14.10;99.90
19348;DHT22;9810;52.480;9.806;2023-06-10T04:21:49;13.90;99.90
19348;DHT22;9810;52.480;9.806;2023-06-10T04:24:17;13.70;99.90
19348;DHT22;9810;52.480;9.806;2023-06-10T04:26:44;13.50;99.90
19348;DHT22;9810;52.480;9.806;2023-06-10T04:29:13;13.90;99.90
19348;DHT22;9810;52.480;9.806;2023-06-10T04:31:40;13.80;99.90
19348;DHT22;9810;52.480;9.806;2023-06-10T04:34:08;14.10;99.90
19348;DHT22;9810;52.480;9.806;2023-06-10T04:36:35;14.10;99.90
19348;DHT22;9810;52.480;9.806;2023-06-10T04:39:03;14.00;99.90
19348;DHT22;9810;52.480;9.806;2023-06-10T04:41:31;13.90;99.90
19348;DHT22;9810;52.480;9.806;2023-06-10T04:43:58;14.10;99.90
19348;DHT22;9810;52.480;9.806;2023-06-10T04:46:27;14.30;99.90
19348;DHT22;9810;52.480;9.806;2023-06-10T04:48:56;14.00;99.90
19348;DHT22;9810;52.480;9.806;2023-06-10T04:51:23;13.90;99.90
19348;DHT22;9810;52.480;9.806;2023-06-10T04:53:51;13.90;99.90
19348;DHT22;9810;52.480;9.806;2023-06-10T04:56:19;14.10;99.90
19348;DHT22;9810;52.480;9.806;2023-06-10T04:58:47;14.40;99.90
19348;DHT22;9810;52.480;9.806;2023-06-10T05:01:15;14.30;99.90
19348;DHT22;9810;52.480;9.806;2023-06-10T05:03:44;14.10;99.90
19348;DHT22;9810;52.480;9.806;2023-06-10T05:06:11;14.20;99.90
19348;DHT22;9810;52.480;9.806;2023-06-10T05:08:39;14.40;99.90
19348;DHT22;9810;52.480;9.806;2023-06-10T05:11:06;14.30;99.90
19348;DHT22;9810;52.480;9.806;2023-06-10T05:13:34;14.30;99.90
19348;DHT22;9810;52.480;9.806;2023-06-10T05:16:01;14.40;99.90
19348;DHT22;9810;52.480;9.806;2023-06-10T05:18:29;14.60;99.90
19348;DHT22;9810;52.480;9.806;2023-06-10T05:20:58;14.60;99.90
19348;DHT22;9810;52.480;9.806;2023-06-10T05:23:25;14.80;99.90
19348;DHT22;9810;52.480;9.806;2023-06-10T05:25:53;14.80;99.90
19348;DHT22;9810;52.480;9.806;2023-06-10T05:28:20;14.80;99.90
19348;DHT22;9810;52.480;9.806;2023-06-10T05:30:47;14.80;99.90
19348;DHT22;9810;52.480;9.806;2023-06-10T05:33:15;15.00;99.90
19348;DHT22;9810;52.480;9.806;2023-06-10T05:35:45;15.20;99.90
19348;DHT22;9810;52.480;9.806;2023-06-10T05:38:14;14.90;99.90
19348;DHT22;9810;52.480;9.806;2023-06-10T05:40:42;15.00;99.90
19348;DHT22;9810;52.480;9.806;2023-06-10T05:43:09;15.00;99.90
19348;DHT22;9810;52.480;9.806;2023-06-10T05:45:37;15.20;99.90
19348;DHT22;9810;52.480;9.806;2023-06-10T05:48:05;15.50;99.90
19348;DHT22;9810;52.480;9.806;2023-06-10T05:50:34;15.70;99.90
19348;DHT22;9810;52.480;9.806;2023-06-10T05:53:04;15.70;99.90
19348;DHT22;9810;52.480;9.806;2023-06-10T05:55:34;15.60;99.90
19348;DHT22;9810;52.480;9.806;2023-06-10T05:58:01;15.70;99.90
19348;DHT22;9810;52.480;9.806;2023-06-10T06:00:29;15.80;99.90
19348;DHT22;9810;52.480;9.806;2023-06-10T06:02:56;16.10;99.90
19348;DHT22;9810;52.480;9.806;2023-06-10T06:05:24;16.20;99.90
19348;DHT22;9810;52.480;9.806;2023-06-10T06:07:51;16.50;99.90
19348;DHT22;9810;52.480;9.806;2023-06-10T06:10:19;16.90;99.90
19348;DHT22;9810;52.480;9.806;2023-06-10T06:12:48;16.90;99.90
19348;DHT22;9810;52.480;9.806;2023-06-10T06:15:15;16.90;99.90
19348;DHT22;9810;52.480;9.806;2023-06-10T06:17:43;16.90;99.90
19348;DHT22;9810;52.480;9.806;2023-06-10T06:20:11;16.90;99.90
19348;DHT22;9810;52.480;9.806;2023-06-10T06:22:38;17.00;99.90
19348;DHT22;9810;52.480;9.806;2023-06-10T06:25:06;17.00;99.90
19348;DHT22;9810;52.480;9.806;2023-06-10T06:27:33;16.80;99.90
19348;DHT22;9810;52.480;9.806;2023-06-10T06:30:03;16.70;99.90
19348;DHT22;9810;52.480;9.806;2023-06-10T06:32:30;16.90;99.90
19348;DHT22;9810;52.480;9.806;2023-06-10T06:34:58;17.20;99.90
19348;DHT22;9810;52.480;9.806;2023-06-10T06:37:26;16.90;99.90
19348;DHT22;9810;52.480;9.806;2023-06-10T06:39:54;16.70;99.90
19348;DHT22;9810;52.480;9.806;2023-06-10T06:42:21;16.60;99.90
19348;DHT22;9810;52.480;9.806;2023-06-10T06:44:48;16.20;99.90
19348;DHT22;9810;52.480;9.806;2023-06-10T06:47:17;16.60;99.90
19348;DHT22;9810;52.480;9.806;2023-06-10T06:49:45;16.80;99.90
19348;DHT22;9810;52.480;9.806;2023-06-10T06:52:13;17.00;99.90
19348;DHT22;9810;52.480;9.806;2023-06-10T06:54:40;17.00;99.90
19348;DHT22;9810;52.480;9.806;2023-06-10T06:57:08;16.80;99.90
19348;DHT22;9810;52.480;9.806;2023-06-10T06:59:35;16.40;99.90
19348;DHT22;9810;52.480;9.806;2023-06-10T07:02:03;16.80;99.90
19348;DHT22;9810;52.480;9.806;2023-06-10T07:04:32;17.00;99.90
19348;DHT22;9810;52.480;9.806;2023-06-10T07:06:59;16.90;99.90
19348;DHT22;9810;52.480;9.806;2023-06-10T07:09:27;17.30;99.90
19348;DHT22;9810;52.480;9.806;2023-06-10T07:11:54;17.50;99.90
19348;DHT22;9810;52.480;9.806;2023-06-10T07:14:21;17.90;99.90
19348;DHT22;9810;52.480;9.806;2023-06-10T07:16:49;18.20;99.90
19348;DHT22;9810;52.480;9.806;2023-06-10T07:19:16;18.20;99.90
19348;DHT22;9810;52.480;9.806;2023-06-10T07:21:45;18.20;99.90
19348;DHT22;9810;52.480;9.806;2023-06-10T07:24:13;18.60;99.90
19348;DHT22;9810;52.480;9.806;2023-06-10T07:26:41;19.10;99.90
19348;DHT22;9810;52.480;9.806;2023-06-10T07:29:08;19.20;99.90
19348;DHT22;9810;52.480;9.806;2023-06-10T07:31:35;20.00;99.90
19348;DHT22;9810;52.480;9.806;2023-06-10T07:34:03;20.10;99.90
19348;DHT22;9810;52.480;9.806;2023-06-10T07:36:30;20.60;99.90
19348;DHT22;9810;52.480;9.806;2023-06-10T07:38:59;20.20;99.90
19348;DHT22;9810;52.480;9.806;2023-06-10T07:41:27;20.40;99.90
19348;DHT22;9810;52.480;9.806;2023-06-10T07:43:54;21.20;99.90
19348;DHT22;9810;52.480;9.806;2023-06-10T07:46:22;21.90;99.90
19348;DHT22;9810;52.480;9.806;2023-06-10T07:48:50;22.10;99.90
19348;DHT22;9810;52.480;9.806;2023-06-10T07:51:17;22.30;99.90
19348;DHT22;9810;52.480;9.806;2023-06-10T07:53:45;22.40;99.90
19348;DHT22;9810;52.480;9.806;2023-06-10T07:56:14;22.00;99.90
19348;DHT22;9810;52.480;9.806;2023-06-10T07:58:41;22.60;99.90
19348;DHT22;9810;52.480;9.806;2023-06-10T08:01:09;23.00;99.90
19348;DHT22;9810;52.480;9.806;2023-06-10T08:03:36;22.60;99.90
19348;DHT22;9810;52.480;9.806;2023-06-10T08:06:04;23.10;99.90
19348;DHT22;9810;52.480;9.806;2023-06-10T08:08:31;23.30;99.90
19348;DHT22;9810;52.480;9.806;2023-06-10T08:11:00;23.40;99.90
19348;DHT22;9810;52.480;9.806;2023-06-10T08:13:29;22.70;99.90
19348;DHT22;9810;52.480;9.806;2023-06-10T08:15:56;23.60;99.90
19348;DHT22;9810;52.480;9.806;2023-06-10T08:18:23;24.20;99.90
19348;DHT22;9810;52.480;9.806;2023-06-10T08:20:50;24.50;99.90
19348;DHT22;9810;52.480;9.806;2023-06-10T08:23:17;24.80;99.90
19348;DHT22;9810;52.480;9.806;2023-06-10T08:25:45;24.20;99.90
19348;DHT22;9810;52.480;9.806;2023-06-10T08:28:12;24.30;99.90
19348;DHT22;9810;52.480;9.806;2023-06-10T08:30:41;24.90;99.90
19348;DHT22;9810;52.480;9.806;2023-06-10T08:33:08;25.10;99.90
19348;DHT22;9810;52.480;9.806;2023-06-10T08:35:36;25.20;99.90
19348;DHT22;9810;52.480;9.806;2023-06-10T08:38:03;24.60;99.90
19348;DHT22;9810;52.480;9.806;2023-06-10T08:40:30;25.00;99.90
19348;DHT22;9810;52.480;9.806;2023-06-10T08:43:03;25.70;99.90
19348;DHT22;9810;52.480;9.806;2023-06-10T08:45:32;25.90;99.90
19348;DHT22;9810;52.480;9.806;2023-06-10T08:48:03;25.90;99.90
19348;DHT22;9810;52.480;9.806;2023-06-10T08:50:33;26.50;99.90
19348;DHT22;9810;52.480;9.806;2023-06-10T08:53:02;26.50;99.90
19348;DHT22;9810;52.480;9.806;2023-06-10T08:55:33;26.70;99.90
19348;DHT22;9810;52.480;9.806;2023-06-10T08:58:03;26.70;99.90
19348;DHT22;9810;52.480;9.806;2023-06-10T09:00:31;26.80;99.90
19348;DHT22;9810;52.480;9.806;2023-06-10T09:02:59;26.90;99.90
19348;DHT22;9810;52.480;9.806;2023-06-10T09:05:28;27.00;99.90
19348;DHT22;9810;52.480;9.806;2023-06-10T09:07:57;27.20;99.90
19348;DHT22;9810;52.480;9.806;2023-06-10T09:10:25;27.60;99.90
19348;DHT22;9810;52.480;9.806;2023-06-10T09:12:53;27.40;99.90
19348;DHT22;9810;52.480;9.806;2023-06-10T09:15:21;26.50;99.90
19348;DHT22;9810;52.480;9.806;2023-06-10T09:17:48;27.80;99.90
19348;DHT22;9810;52.480;9.806;2023-06-10T09:20:16;26.70;99.90
19348;DHT22;9810;52.480;9.806;2023-06-10T09:22:46;27.60;99.90
19348;DHT22;9810;52.480;9.806;2023-06-10T09:25:13;28.40;99.90
19348;DHT22;9810;52.480;9.806;2023-06-10T09:27:45;28.50;99.90
19348;DHT22;9810;52.480;9.806;2023-06-10T09:30:24;28.30;99.90
19348;DHT22;9810;52.480;9.806;2023-06-10T09:32:53;27.70;99.90
19348;DHT22;9810;52.480;9.806;2023-06-10T09:35:22;28.10;99.90
19348;DHT22;9810;52.480;9.806;2023-06-10T09:37:52;28.00;99.90
19348;DHT22;9810;52.480;9.806;2023-06-10T09:40:20;28.80;99.90
19348;DHT22;9810;52.480;9.806;2023-06-10T09:42:53;29.00;99.90
19348;DHT22;9810;52.480;9.806;2023-06-10T09:45:21;29.30;99.90
19348;DHT22;9810;52.480;9.806;2023-06-10T09:47:51;28.40;99.90
19348;DHT22;9810;52.480;9.806;2023-06-10T09:50:19;27.40;99.90
19348;DHT22;9810;52.480;9.806;2023-06-10T09:52:47;27.40;99.90
19348;DHT22;9810;52.480;9.806;2023-06-10T09:55:17;28.00;99.90
19348;DHT22;9810;52.480;9.806;2023-06-10T09:57:44;28.80;99.90
19348;DHT22;9810;52.480;9.806;2023-06-10T10:00:14;28.60;99.90
19348;DHT22;9810;52.480;9.806;2023-06-10T10:02:46;28.50;99.90
19348;DHT22;9810;52.480;9.806;2023-06-10T10:05:14;28.40;99.90
19348;DHT22;9810;52.480;9.806;2023-06-10T10:07:42;28.30;99.90
19348;DHT22;9810;52.480;9.806;2023-06-10T10:10:10;28.90;99.90
19348;DHT22;9810;52.480;9.806;2023-06-10T10:12:40;29.20;99.90
19348;DHT22;9810;52.480;9.806;2023-06-10T10:15:09;28.50;99.90
19348;DHT22;9810;52.480;9.806;2023-06-10T10:17:40;28.30;99.90
19348;DHT22;9810;52.480;9.806;2023-06-10T10:20:12;28.60;99.90
19348;DHT22;9810;52.480;9.806;2023-06-10T10:22:43;28.70;99.90
19348;DHT22;9810;52.480;9.806;2023-06-10T10:25:13;29.30;99.90
19348;DHT22;9810;52.480;9.806;2023-06-10T10:27:49;29.60;99.90
19348;DHT22;9810;52.480;9.806;2023-06-10T10:30:20;29.10;99.90
19348;DHT22;9810;52.480;9.806;2023-06-10T10:32:55;29.00;99.90
19348;DHT22;9810;52.480;9.806;2023-06-10T10:35:24;28.40;99.90
19348;DHT22;9810;52.480;9.806;2023-06-10T10:37:52;28.10;99.90
19348;DHT22;9810;52.480;9.806;2023-06-10T10:40:20;28.20;99.90
19348;DHT22;9810;52.480;9.806;2023-06-10T10:42:51;27.60;99.90
19348;DHT22;9810;52.480;9.806;2023-06-10T10:45:18;27.70;99.90
19348;DHT22;9810;52.480;9.806;2023-06-10T10:47:46;26.50;99.90
19348;DHT22;9810;52.480;9.806;2023-06-10T10:50:18;26.80;99.90
19348;DHT22;9810;52.480;9.806;2023-06-10T10:52:54;26.20;99.90
19348;DHT22;9810;52.480;9.806;2023-06-10T10:55:22;26.90;99.90
19348;DHT22;9810;52.480;9.806;2023-06-10T10:57:59;26.60;99.90
19348;DHT22;9810;52.480;9.806;2023-06-10T11:00:30;27.10;99.90
19348;DHT22;9810;52.480;9.806;2023-06-10T11:02:59;27.90;99.90
19348;DHT22;9810;52.480;9.806;2023-06-10T11:05:39;28.30;99.90
19348;DHT22;9810;52.480;9.806;2023-06-10T11:08:08;28.00;99.90
19348;DHT22;9810;52.480;9.806;2023-06-10T11:10:36;28.10;99.90
19348;DHT22;9810;52.480;9.806;2023-06-10T11:13:13;28.20;99.90
19348;DHT22;9810;52.480;9.806;2023-06-10T11:15:44;28.50;99.90
19348;DHT22;9810;52.480;9.806;2023-06-10T11:18:20;27.30;99.90
19348;DHT22;9810;52.480;9.806;2023-06-10T11:20:59;26.80;99.90
19348;DHT22;9810;52.480;9.806;2023-06-10T11:23:35;27.10;99.90
19348;DHT22;9810;52.480;9.806;2023-06-10T11:26:16;27.30;99.90
19348;DHT22;9810;52.480;9.806;2023-06-10T11:29:07;27.30;99.90
19348;DHT22;9810;52.480;9.806;2023-06-10T11:31:42;26.80;99.90
19348;DHT22;9810;52.480;9.806;2023-06-10T11:34:10;26.80;99.90
19348;DHT22;9810;52.480;9.806;2023-06-10T11:36:39;26.40;99.90
19348;DHT22;9810;52.480;9.806;2023-06-10T11:39:11;27.00;99.90
19348;DHT22;9810;52.480;9.806;2023-06-10T11:41:39;27.40;99.90
19348;DHT22;9810;52.480;9.806;2023-06-10T11:44:12;27.90;99.90
19348;DHT22;9810;52.480;9.806;2023-06-10T11:46:40;28.30;99.90
19348;DHT22;9810;52.480;9.806;2023-06-10T11:49:08;28.40;99.90
19348;DHT22;9810;52.480;9.806;2023-06-10T11:51:36;28.30;99.90
19348;DHT22;9810;52.480;9.806;2023-06-10T11:54:05;28.40;99.90
19348;DHT22;9810;52.480;9.806;2023-06-10T11:56:33;28.50;99.90
19348;DHT22;9810;52.480;9.806;2023-06-10T11:59:02;27.70;99.90
19348;DHT22;9810;52.480;9.806;2023-06-10T12:01:34;27.40;99.90
19348;DHT22;9810;52.480;9.806;2023-06-10T12:04:03;27.30;99.90
19348;DHT22;9810;52.480;9.806;2023-06-10T12:06:38;27.70;99.90
19348;DHT22;9810;52.480;9.806;2023-06-10T12:09:06;27.80;99.90
19348;DHT22;9810;52.480;9.806;2023-06-10T12:11:34;27.90;99.90
19348;DHT22;9810;52.480;9.806;2023-06-10T12:14:01;27.70;99.90
19348;DHT22;9810;52.480;9.806;2023-06-10T12:16:29;27.60;99.90
19348;DHT22;9810;52.480;9.806;2023-06-10T12:19:03;28.00;99.90
19348;DHT22;9810;52.480;9.806;2023-06-10T12:21:32;28.50;99.90
19348;DHT22;9810;52.480;9.806;2023-06-10T12:24:07;28.10;99.90
19348;DHT22;9810;52.480;9.806;2023-06-10T12:26:40;28.00;99.90
19348;DHT22;9810;52.480;9.806;2023-06-10T12:29:18;28.00;99.90
19348;DHT22;9810;52.480;9.806;2023-06-10T12:31:53;27.30;99.90
19348;DHT22;9810;52.480;9.806;2023-06-10T12:34:32;28.10;99.90
19348;DHT22;9810;52.480;9.806;2023-06-10T12:37:01;27.50;99.90
19348;DHT22;9810;52.480;9.806;2023-06-10T12:39:30;27.40;99.90
19348;DHT22;9810;52.480;9.806;2023-06-10T12:41:57;27.10;99.90
19348;DHT22;9810;52.480;9.806;2023-06-10T12:44:32;26.80;99.90
19348;DHT22;9810;52.480;9.806;2023-06-10T12:47:00;26.80;99.90
19348;DHT22;9810;52.480;9.806;2023-06-10T12:49:29;27.20;99.90
19348;DHT22;9810;52.480;9.806;2023-06-10T12:51:56;27.00;99.90
19348;DHT22;9810;52.480;9.806;2023-06-10T12:54:24;27.00;99.90
19348;DHT22;9810;52.480;9.806;2023-06-10T12:56:51;27.40;99.90
19348;DHT22;9810;52.480;9.806;2023-06-10T12:59:19;27.90;99.90
19348;DHT22;9810;52.480;9.806;2023-06-10T13:01:50;28.00;99.90
19348;DHT22;9810;52.480;9.806;2023-06-10T13:04:18;28.00;99.90
19348;DHT22;9810;52.480;9.806;2023-06-10T13:06:47;28.20;99.90
19348;DHT22;9810;52.480;9.806;2023-06-10T13:09:15;27.60;99.90
19348;DHT22;9810;52.480;9.806;2023-06-10T13:11:42;28.50;99.90
19348;DHT22;9810;52.480;9.806;2023-06-10T13:14:11;28.70;99.90
19348;DHT22;9810;52.480;9.806;2023-06-10T13:16:38;29.00;99.90
19348;DHT22;9810;52.480;9.806;2023-06-10T13:19:05;28.90;99.90
19348;DHT22;9810;52.480;9.806;2023-06-10T13:21:33;28.80;99.90
19348;DHT22;9810;52.480;9.806;2023-06-10T13:24:03;28.70;99.90
19348;DHT22;9810;52.480;9.806;2023-06-10T13:26:30;28.80;99.90
19348;DHT22;9810;52.480;9.806;2023-06-10T13:28:58;28.10;99.90
19348;DHT22;9810;52.480;9.806;2023-06-10T13:31:25;28.30;99.90
19348;DHT22;9810;52.480;9.806;2023-06-10T13:33:52;28.30;99.90
19348;DHT22;9810;52.480;9.806;2023-06-10T13:36:19;28.40;99.90
19348;DHT22;9810;52.480;9.806;2023-06-10T13:38:46;29.10;99.90
19348;DHT22;9810;52.480;9.806;2023-06-10T13:41:16;28.90;99.90
19348;DHT22;9810;52.480;9.806;2023-06-10T13:43:43;28.60;99.90
19348;DHT22;9810;52.480;9.806;2023-06-10T13:46:10;28.40;99.90
19348;DHT22;9810;52.480;9.806;2023-06-10T13:48:38;28.30;99.90
19348;DHT22;9810;52.480;9.806;2023-06-10T13:51:06;28.20;99.90
19348;DHT22;9810;52.480;9.806;2023-06-10T13:53:34;28.30;99.90
19348;DHT22;9810;52.480;9.806;2023-06-10T13:56:02;28.80;99.90
19348;DHT22;9810;52.480;9.806;2023-06-10T13:58:31;29.10;99.90
19348;DHT22;9810;52.480;9.806;2023-06-10T14:00:59;28.90;99.90
19348;DHT22;9810;52.480;9.806;2023-06-10T14:03:27;28.50;99.90
19348;DHT22;9810;52.480;9.806;2023-06-10T14:05:54;28.70;99.90
19348;DHT22;9810;52.480;9.806;2023-06-10T14:08:21;29.10;99.90
19348;DHT22;9810;52.480;9.806;2023-06-10T14:10:48;29.10;99.90
19348;DHT22;9810;52.480;9.806;2023-06-10T14:13:16;28.80;99.90
19348;DHT22;9810;52.480;9.806;2023-06-10T14:15:45;28.90;99.90
19348;DHT22;9810;52.480;9.806;2023-06-10T14:18:12;28.70;99.90
19348;DHT22;9810;52.480;9.806;2023-06-10T14:20:40;29.00;99.90
19348;DHT22;9810;52.480;9.806;2023-06-10T14:23:07;28.80;99.90
19348;DHT22;9810;52.480;9.806;2023-06-10T14:25:34;28.40;99.90
19348;DHT22;9810;52.480;9.806;2023-06-10T14:28:02;28.50;99.90
19348;DHT22;9810;52.480;9.806;2023-06-10T14:30:29;28.80;99.90
19348;DHT22;9810;52.480;9.806;2023-06-10T14:32:58;28.80;99.90
19348;DHT22;9810;52.480;9.806;2023-06-10T14:35:25;28.50;99.90
19348;DHT22;9810;52.480;9.806;2023-06-10T14:37:52;28.60;99.90
19348;DHT22;9810;52.480;9.806;2023-06-10T14:40:20;28.90;99.90
19348;DHT22;9810;52.480;9.806;2023-06-10T14:42:49;28.90;99.90
19348;DHT22;9810;52.480;9.806;2023-06-10T14:45:17;29.10;99.90
19348;DHT22;9810;52.480;9.806;2023-06-10T14:47:44;29.00;99.90
19348;DHT22;9810;52.480;9.806;2023-06-10T14:50:14;29.10;99.90
19348;DHT22;9810;52.480;9.806;2023-06-10T14:52:41;28.80;99.90
19348;DHT22;9810;52.480;9.806;2023-06-10T14:55:09;28.90;99.90
19348;DHT22;9810;52.480;9.806;2023-06-10T14:57:36;28.80;99.90
19348;DHT22;9810;52.480;9.806;2023-06-10T15:00:05;28.70;99.90
19348;DHT22;9810;52.480;9.806;2023-06-10T15:02:32;29.10;99.90
19348;DHT22;9810;52.480;9.806;2023-06-10T15:05:00;29.10;99.90
19348;DHT22;9810;52.480;9.806;2023-06-10T15:07:29;29.00;99.90
19348;DHT22;9810;52.480;9.806;2023-06-10T15:09:56;29.00;99.90
19348;DHT22;9810;52.480;9.806;2023-06-10T15:12:24;29.30;99.90
19348;DHT22;9810;52.480;9.806;2023-06-10T15:14:53;29.10;99.90
19348;DHT22;9810;52.480;9.806;2023-06-10T15:17:20;29.20;99.90
19348;DHT22;9810;52.480;9.806;2023-06-10T15:19:48;28.80;99.90
19348;DHT22;9810;52.480;9.806;2023-06-10T15:22:15;28.90;99.90
19348;DHT22;9810;52.480;9.806;2023-06-10T15:24:44;29.10;99.90
19348;DHT22;9810;52.480;9.806;2023-06-10T15:27:11;29.30;99.90
19348;DHT22;9810;52.480;9.806;2023-06-10T15:29:39;28.70;99.90
19348;DHT22;9810;52.480;9.806;2023-06-10T15:32:07;28.60;99.90
19348;DHT22;9810;52.480;9.806;2023-06-10T15:34:34;28.70;99.90
19348;DHT22;9810;52.480;9.806;2023-06-10T15:37:02;28.70;99.90
19348;DHT22;9810;52.480;9.806;2023-06-10T15:39:30;28.80;99.90
19348;DHT22;9810;52.480;9.806;2023-06-10T15:41:58;29.00;99.90
19348;DHT22;9810;52.480;9.806;2023-06-10T15:44:25;28.80;99.90
19348;DHT22;9810;52.480;9.806;2023-06-10T15:46:53;29.20;99.90
19348;DHT22;9810;52.480;9.806;2023-06-10T15:49:20;29.20;99.90
19348;DHT22;9810;52.480;9.806;2023-06-10T15:51:47;29.00;99.90
19348;DHT22;9810;52.480;9.806;2023-06-10T15:54:15;28.80;99.90